Station: Innisfail Aero

  Atmospheric Gas Attenuation - ITU Rec 676-11   --------------- db/100km ---------------
Date Time Temp RH % AH g/m3 Dew Point Wind Direction Speed kph Gust kph Barometer mB Rainfall Since 9am 24GHz 47GHz 76GHz 122GHz 134GHz 241GHz
27 01:20 24.3 24.5 0 0 1005.3 14.2
27 01:10 24.3 24.5 4 6 1005.3 14.2
27 01:00 24.4 100 22.25 24.4 4 7 1005.6 14.2 48.0 46.5 93.4 247.5 278.0 965.4
27 00:50 24.4 24.6 0 0 1005.7 14.2
27 00:40 24.4 24.6 0 0 1005.9 14.2
27 00:30 24.5 100 22.38 24.5 6 13 1006 14 48.3 46.7 94.0 249.0 279.8 972.0
27 00:20 24.4 24.6 11 13 1006.3 13.2
27 00:10 24.3 24.5 0 0 1006.3 12.6
27 00:00 24.3 100 22.13 24.3 0 0 1006.3 12.6 47.8 46.3 93.0 246.3 276.5 960.2
26 23:50 24.2 100 22 24.2 0 0 1006.4 12.6 47.5 46.1 92.5 244.8 274.7 954.0
26 23:40 24.2 100 22 24.2 0 0 1006.4 12.6 47.5 46.1 92.5 244.8 274.7 954.0
26 23:30 24.3 100 22.13 24.3 7 9 1006.4 12.6 47.8 46.3 93.0 246.3 276.5 960.2
26 23:20 24.4 24.6 7 9 1006.5 12.6
26 23:10 24.2 100 22 24.2 6 6 1006.6 12.6 47.5 46.1 92.5 244.9 274.7 954.1
26 23:00 23.9 98 21.2 23.6 2 6 1006.7 12.4 45.8 44.6 88.8 235.0 262.5 911.7
26 22:50 24 98 21.32 23.7 0 0 1006.7 12.4 46.1 44.8 89.3 236.3 264.1 917.3
26 22:40 24.1 97 21.22 23.6 0 0 1006.7 12.4 45.9 44.6 88.6 234.6 262.1 910.4
26 22:30 24.4 97 21.59 23.9 0 0 1006.7 12.4 46.6 45.2 90.1 238.7 267.1 927.9
26 22:20 24.4 97 21.59 23.9 0 0 1006.7 12.4 46.6 45.2 90.1 238.7 267.1 927.9
26 22:10 24.5 98 21.93 24.2 4 6 1006.7 12.4 47.3 45.8 91.8 243.0 272.4 946.2
26 22:00 24.5 98 21.93 24.2 9 11 1006.6 12.4 47.3 45.8 91.7 242.9 272.4 946.2
26 21:50 24.5 97 21.71 24 9 11 1006.6 12.4 46.9 45.3 90.6 239.9 268.8 933.5
26 21:40 24.6 97 21.83 24.1 9 11 1006.4 12.4 47.1 45.5 91.1 241.2 270.3 939.0
26 21:30 24.6 97 21.83 24.1 11 15 1006.4 12.4 47.1 45.5 91.1 241.2 270.3 939.0
26 21:20 24.6 97 21.83 24.1 11 13 1006.4 12.4 47.1 45.5 91.1 241.2 270.3 939.0
26 21:10 24.6 97 21.83 24.1 9 11 1006.4 12.4 47.1 45.5 91.1 241.2 270.3 939.0
26 21:00 24.6 97 21.83 24.1 11 15 1006.3 12.4 47.1 45.5 91.1 241.2 270.3 938.9
26 20:50 24.7 97 21.95 24.2 11 13 1006.2 12 47.3 45.7 91.6 242.5 271.9 944.5
26 20:40 24.7 97 21.95 24.2 11 11 1006.1 12 47.3 45.7 91.6 242.5 271.9 944.5
26 20:30 24.7 98 22.18 24.4 7 11 1005.9 12 47.8 46.2 92.7 245.6 275.7 957.6
26 20:20 24.6 98 22.06 24.3 7 9 1005.9 12 47.6 46.0 92.2 244.2 274.1 952.0
26 20:10 24.6 98 22.06 24.3 9 9 1005.8 12 47.6 46.0 92.2 244.2 274.1 951.9
26 20:00 24.6 97 21.83 24.1 9 11 1005.7 12 47.1 45.5 91.0 241.1 270.2 938.6
26 19:50 24.7 97 21.95 24.2 9 11 1005.6 12 47.4 45.7 91.5 242.4 271.8 944.2
26 19:40 24.8 97 22.08 24.3 9 11 1005.5 12 47.6 45.9 92.1 243.8 273.6 950.3
26 19:30 24.8 97 22.08 24.3 9 13 1005.4 12 47.6 45.9 92.1 243.8 273.6 950.3
26 19:20 24.9 97 22.2 24.4 11 13 1005.3 12 47.9 46.1 92.5 245.1 275.2 955.8
26 19:10 24.9 97 22.2 24.4 11 13 1005.3 12 47.9 46.1 92.5 245.1 275.2 955.8
26 19:00 25.1 97 22.45 24.6 11 11 1005.2 12 48.4 46.4 93.6 247.8 278.6 967.7
26 18:50 25.2 96 22.35 24.5 11 13 1005.2 12 48.1 46.2 92.9 246.1 276.5 960.6
26 18:40 25.3 97 22.71 24.8 13 15 1005.2 12 48.9 46.9 94.6 250.7 282.2 980.2
26 18:30 25.5 97 22.96 25 11 11 1005.1 12 49.4 47.3 95.7 253.4 285.6 992.0
26 18:20 25.5 97 22.96 25 11 11 1005.1 12 49.4 47.3 95.7 253.4 285.6 992.0
26 18:10 25.5 97 22.96 25 13 13 1004.9 12 49.4 47.3 95.6 253.3 285.5 991.9
26 18:00 25.6 96 22.86 24.9 13 17 1004.8 12 49.2 47.0 95.0 251.6 283.4 984.6
26 17:50 25.7 96 22.98 25 15 17 1004.7 11.8 49.4 47.2 95.5 252.9 285.1 990.2
26 17:40 25.7 96 22.98 25 15 15 1004.7 11.8 49.4 47.2 95.5 252.9 285.1 990.2
26 17:30 25.9 96 23.24 25.2 13 17 1004.6 11.8 50.0 47.6 96.6 255.8 288.6 1002.6
26 17:20 26.1 94 23.01 25.1 13 15 1004.4 11.6 49.5 47.0 95.1 251.9 283.9 986.4
26 17:10 26.8 92 23.42 25.4 15 17 1004.3 11.6 50.2 47.4 96.3 255.0 288.0 1000.7
26 17:00 27.1 94 24.33 26 9 11 1004.1 11.6 52.1 49.1 100.6 266.4 302.1 1049.5
26 16:50 26.6 93 23.41 25.4 7 9 1003.9 11.6 50.2 47.5 96.5 255.5 288.6 1002.6
26 16:40 26.4 94 23.4 25.4 9 9 1003.9 11.6 50.2 47.6 96.7 256.1 289.2 1004.7
26 16:30 26.2 96 23.63 25.5 9 11 1003.9 11.6 50.8 48.2 98.1 259.9 293.9 1020.9
26 16:20 25.6 95 22.62 24.7 7 7 1003.9 11.6 48.7 46.5 93.7 248.2 279.3 970.2
26 16:10 25.6 93 22.14 24.4 17 19 1003.9 11.6 47.7 45.5 91.3 241.7 271.3 942.6
26 16:00 26.9 90 23.04 25.1 13 17 1003.9 10.4 49.4 46.6 94.2 249.5 281.3 977.3
26 15:50 26.9 93 23.8 25.7 9 11 1003.8 9.8 51.0 48.1 98.1 259.8 293.9 1021.1
26 15:40 26.3 93 23.02 25.1 7 9 1003.7 9.8 49.5 46.9 94.8 251.2 283.2 983.9
26 15:30 26 89 21.67 24 11 20 1003.7 9.8 46.6 44.3 88.4 234.1 262.2 910.8
26 15:20 27.1 91 23.55 25.5 7 7 1003.5 8 50.5 47.5 96.5 255.6 288.9 1003.6
26 15:10 26.8 91 23.16 25.2 7 7 1003.7 8 49.7 46.9 94.9 251.4 283.6 985.3
26 15:00 26.8 88 22.4 24.6 13 20 1003.7 8 48.1 45.3 91.1 241.2 271.1 942.0
26 14:50 28.1 83 22.7 24.9 13 15 1003.7 8 48.5 45.2 91.0 241.0 271.2 942.4
26 14:40 28 84 22.85 25 17 17 1003.8 8 48.9 45.6 91.9 243.3 274.0 952.2
26 14:30 28.1 88 24.07 25.9 15 20 1003.8 8 51.4 48.0 97.9 259.3 293.6 1020.2
26 14:20 27.5 90 23.81 25.7 13 15 1004 8 51.0 47.8 97.3 257.9 291.7 1013.5
26 14:10 26.8 94 23.93 25.8 13 15 1004.1 8 51.3 48.5 98.9 262.0 296.5 1030.2
26 14:00 26.4 95 23.65 25.5 19 30 1004.3 8 50.8 48.1 98.0 259.6 293.5 1019.5
26 13:50 26.6 89 22.4 24.6 22 24 1004.3 8 48.1 45.5 91.4 242.0 272.0 944.9
26 13:40 27.3 90 23.55 25.5 17 20 1004.4 8 50.4 47.4 96.3 255.1 288.2 1001.5
26 13:30 27.8 91 24.48 26.2 13 20 1004.5 8 52.4 49.0 100.4 266.0 301.8 1048.6
26 13:20 27.8 89 23.94 25.8 13 17 1004.5 8 51.2 47.9 97.6 258.7 292.7 1017.3
26 13:10 27.3 90 23.55 25.5 9 11 1004.6 8 50.4 47.4 96.3 255.1 288.3 1001.6
26 13:00 26.5 93 23.28 25.3 13 20 1004.7 8 50.0 47.3 96.0 254.2 286.9 996.9
26 12:50 27.2 87 22.64 24.8 17 19 1004.9 7.8 48.5 45.6 91.9 243.3 273.8 951.2
26 12:40 27.3 88 23.03 25.1 13 15 1005.1 7.8 49.3 46.4 93.7 248.2 279.8 972.2
26 12:30 27 93 23.94 25.8 9 15 1005.3 7.6 51.3 48.4 98.8 261.6 296.1 1028.8
26 12:20 26.2 97 23.88 25.7 7 9 1005.4 7.6 51.3 48.8 99.5 263.7 298.4 1036.6
26 12:10 25.4 97 22.84 24.9 7 11 1005.7 7.6 49.2 47.1 95.2 252.2 284.1 986.7
26 12:00 25.2 97 22.58 24.7 17 24 1005.9 6.6 48.6 46.7 94.1 249.3 280.5 974.4
26 11:50 24.7 96 21.73 24 22 26 1006 5.6 46.9 45.2 90.4 239.5 268.2 931.7
26 11:40 24.5 94 21.04 23.5 20 28 1006.1 3.4 45.4 44.0 87.2 230.9 257.6 894.9
26 11:30 26.8 92 23.42 25.4 13 19 1006.1 1.6 50.2 47.5 96.4 255.4 288.4 1001.9
26 11:20 26.9 89 22.78 24.9 19 20 1006.1 1.6 48.8 46.1 93.0 246.4 277.4 963.8
26 11:10 27.4 88 23.16 25.2 11 13 1006.1 0.8 49.6 46.6 94.3 249.8 281.7 978.9
26 11:00 27.8 85 22.86 25 9 17 1006.2 0.8 48.9 45.8 92.3 244.5 275.3 956.8
26 10:50 28.1 89 24.34 26.1 7 11 1006.2 0.8 52.0 48.6 99.4 263.4 298.5 1037.3
26 10:40 27.5 90 23.81 25.7 7 7 1006.3 0.8 51.0 47.9 97.5 258.3 292.1 1015.0
26 10:30 26.8 90 22.91 25 13 17 1006.5 0.8 49.1 46.5 93.8 248.5 280.0 972.8
26 10:20 26.2 92 22.65 24.8 13 15 1006.6 0.8 48.6 46.3 93.3 247.1 278.0 965.8
26 10:10 25.5 96 22.73 24.8 13 13 1006.6 0.8 48.9 46.9 94.6 250.5 282.0 979.6
26 10:00 25.1 99 22.92 24.9 7 11 1006.7 0.8 49.4 47.5 96.1 254.5 286.8 996.1
26 09:50 24.6 99 22.28 24.4 7 7 1006.8 0.8 48.1 46.5 93.4 247.4 277.9 965.3
26 09:40 24.5 24.7 7 9 1006.9 0.8
26 09:30 24.2 100 22 24.2 6 9 1006.9 0.8 47.5 46.1 92.5 244.9 274.8 954.3
26 09:20 23.9 24.2 4 6 1007 0.8
26 09:10 23.9 24.1 0 0 1007 0.8
26 09:00 23.8 100 21.51 23.8 0 0 1007.1 0.2 46.5 45.3 90.5 239.6 268.1 931.0
26 08:50 23.8 24 0 0 1006.9 52

Last Refresh: 27-Feb-2021 02:04:54

Most of the information presented on this site is sourced from the Bureau of Meteorology.  Copyright in all material sourced from the Bureau of Meteorology resides with the Commonwealth of Australia.